createdAt,value
2023-02-06T00:00:08.942Z,2.53
2023-02-06T00:05:12.643Z,2.75
2023-02-06T00:10:17.886Z,3.03
2023-02-06T00:15:22.065Z,3.00
2023-02-06T00:20:25.747Z,2.70
2023-02-06T00:25:30.910Z,2.38
2023-02-06T00:30:34.593Z,2.95
2023-02-06T00:35:38.307Z,2.97
2023-02-06T00:40:43.355Z,3.15
2023-02-06T00:45:47.079Z,2.30
2023-02-06T00:50:51.566Z,2.95
2023-02-06T00:55:56.687Z,2.97
2023-02-06T01:01:00.415Z,2.88
2023-02-06T01:06:04.219Z,2.78
2023-02-06T01:11:13.359Z,3.53
2023-02-06T01:16:19.654Z,2.10
2023-02-06T01:21:25.195Z,3.13
2023-02-06T01:26:30.494Z,2.38
2023-02-06T01:31:34.296Z,2.60
2023-02-06T01:36:41.238Z,2.53
2023-02-06T01:41:46.653Z,2.13
2023-02-06T01:46:52.037Z,2.22
2023-02-06T01:51:58.843Z,3.25
2023-02-06T01:57:07.878Z,2.30
2023-02-06T02:02:12.370Z,2.30
2023-02-06T02:07:26.466Z,2.17
2023-02-06T02:12:31.556Z,2.58
2023-02-06T02:17:45.287Z,2.10
2023-02-06T02:22:56.153Z,2.22
2023-02-06T02:28:21.225Z,2.92
2023-02-06T02:33:45.457Z,2.42
2023-02-06T02:38:59.784Z,2.67
2023-02-06T02:44:09.227Z,1.95
2023-02-06T02:49:17.530Z,2.58
2023-02-06T02:54:22.746Z,2.05
2023-02-06T02:59:32.319Z,2.50
2023-02-06T03:04:41.802Z,3.00
2023-02-06T03:09:58.823Z,2.45
2023-02-06T03:15:09.049Z,2.22
2023-02-06T03:20:13.745Z,1.85
2023-02-06T03:25:25.965Z,1.70
2023-02-06T03:30:31.021Z,2.35
2023-02-06T03:35:38.385Z,1.63
2023-02-06T03:40:46.855Z,2.55
2023-02-06T03:45:54.669Z,2.55
2023-02-06T03:51:02.565Z,2.25
2023-02-06T03:56:11.151Z,2.92
2023-02-06T04:01:15.454Z,1.90
2023-02-06T04:06:19.405Z,1.80
2023-02-06T04:11:24.417Z,2.88
2023-02-06T04:16:28.227Z,2.28
2023-02-06T04:21:31.842Z,2.55
2023-02-06T04:26:36.872Z,2.38
2023-02-06T04:31:40.678Z,2.92
2023-02-06T04:36:44.537Z,1.88
2023-02-06T04:41:49.591Z,2.13
2023-02-06T04:46:53.384Z,2.15
2023-02-06T04:51:57.094Z,1.92
2023-02-06T04:57:02.171Z,2.70
2023-02-06T05:02:05.980Z,2.45
2023-02-06T05:07:09.671Z,2.25
2023-02-06T05:12:14.716Z,2.33
2023-02-06T05:17:18.546Z,2.13
2023-02-06T05:22:22.791Z,1.85
2023-02-06T05:27:28.057Z,3.05
2023-02-06T05:32:31.819Z,2.67
2023-02-06T05:37:37.208Z,2.50
2023-02-06T05:42:42.421Z,3.17
2023-02-06T05:47:46.140Z,2.10
2023-02-06T05:52:49.865Z,2.47
2023-02-06T05:57:54.896Z,1.92
2023-02-06T06:02:58.667Z,2.40
2023-02-06T06:08:02.388Z,3.40
2023-02-06T06:13:08.437Z,3.05
2023-02-06T06:18:12.222Z,2.70
2023-02-06T06:23:15.950Z,2.42
2023-02-06T06:28:21.091Z,2.97
2023-02-06T06:33:24.824Z,2.40
2023-02-06T06:38:28.554Z,3.45
2023-02-06T06:43:33.722Z,2.45
2023-02-06T06:48:38.375Z,2.65
2023-02-06T06:53:42.160Z,3.28
2023-02-06T06:58:47.278Z,2.65
2023-02-06T07:03:51.038Z,2.65
2023-02-06T07:08:54.735Z,2.97
2023-02-06T07:13:59.962Z,3.05
2023-02-06T07:19:03.736Z,2.83
2023-02-06T07:24:08.202Z,3.00
2023-02-06T07:29:13.309Z,3.00
2023-02-06T07:34:17.802Z,3.40
2023-02-06T07:39:21.623Z,3.17
2023-02-06T07:44:27.115Z,2.45
2023-02-06T07:49:30.828Z,3.38
2023-02-06T07:54:34.594Z,3.13
2023-02-06T07:59:39.695Z,3.53
2023-02-06T08:04:43.609Z,2.40
2023-02-06T08:09:47.485Z,3.03
2023-02-06T08:14:52.543Z,2.78
2023-02-06T08:19:56.493Z,2.72
2023-02-06T08:25:00.229Z,3.42
2023-02-06T08:30:06.219Z,3.17
2023-02-06T08:35:10.187Z,3.30
2023-02-06T08:40:14.045Z,4.15
2023-02-06T08:45:19.475Z,5.50
2023-02-06T08:50:23.293Z,3.58
2023-02-06T08:55:26.999Z,3.70
2023-02-06T09:00:32.273Z,4.07
2023-02-06T09:05:36.218Z,4.22
2023-02-06T09:10:40.065Z,3.50
2023-02-06T09:15:52.142Z,3.55
2023-02-06T09:21:05.548Z,3.65
2023-02-06T09:26:09.656Z,3.80
2023-02-06T09:31:15.008Z,4.97
2023-02-06T09:36:21.115Z,5.18
2023-02-06T09:41:31.171Z,5.28
2023-02-06T09:46:40.258Z,5.03
2023-02-06T09:52:11.675Z,5.28
2023-02-06T09:57:20.895Z,5.13
2023-02-06T10:02:39.676Z,4.80
2023-02-06T10:07:57.335Z,4.07
2023-02-06T10:13:06.187Z,4.65
2023-02-06T10:18:17.460Z,3.80
2023-02-06T10:23:30.059Z,3.90
2023-02-06T10:28:35.694Z,3.17
2023-02-06T10:33:48.352Z,3.08
2023-02-06T10:39:10.638Z,2.58
2023-02-06T10:44:23.982Z,2.83
2023-02-06T10:49:34.989Z,2.10
2023-02-06T10:54:42.757Z,2.50
2023-02-06T10:59:53.521Z,2.05
2023-02-06T11:05:04.634Z,1.88
2023-02-06T11:10:09.312Z,1.75
2023-02-06T11:15:23.297Z,1.90
2023-02-06T11:20:32.007Z,1.83
2023-02-06T11:25:35.921Z,1.60
2023-02-06T11:30:44.104Z,1.90
2023-02-06T11:35:53.838Z,1.65
2023-02-06T11:41:00.783Z,1.77
2023-02-06T11:46:15.139Z,1.83
2023-02-06T11:51:20.288Z,2.17
2023-02-06T11:56:24.762Z,1.00
2023-02-06T12:01:28.518Z,1.75
2023-02-06T12:06:36.649Z,1.77
2023-02-06T12:11:49.675Z,1.83
2023-02-06T12:16:54.618Z,1.15
2023-02-06T12:22:05.280Z,1.50
2023-02-06T12:27:16.772Z,2.35
2023-02-06T12:32:25.344Z,1.88
2023-02-06T12:37:39.603Z,1.35
2023-02-06T12:42:46.619Z,1.45
2023-02-06T12:53:02.371Z,1.85
2023-02-06T12:58:06.538Z,1.42
2023-02-06T13:03:32.747Z,1.65
2023-02-06T13:08:45.194Z,1.70
2023-02-06T13:13:49.901Z,1.35
2023-02-06T13:18:54.504Z,1.70
2023-02-06T13:24:16.783Z,1.88
2023-02-06T13:29:25.285Z,1.25
2023-02-06T13:34:29.280Z,0.98
2023-02-06T13:39:34.878Z,0.98
2023-02-06T13:44:39.430Z,0.80
2023-02-06T13:50:40.390Z,1.45
2023-02-06T13:56:06.055Z,1.20
2023-02-06T14:01:17.000Z,1.38
2023-02-06T14:06:48.020Z,1.13
2023-02-06T14:12:22.115Z,1.02
2023-02-06T14:17:39.765Z,1.10
2023-02-06T14:22:50.416Z,1.42
2023-02-06T14:28:06.941Z,1.60
2023-02-06T14:33:28.127Z,1.70
2023-02-06T14:39:02.728Z,1.20
2023-02-06T14:44:14.590Z,1.30
2023-02-06T14:49:28.008Z,1.55
2023-02-06T14:54:34.582Z,0.98
2023-02-06T14:59:50.492Z,1.52
2023-02-06T15:04:54.433Z,1.50
2023-02-06T15:10:02.666Z,0.95
2023-02-06T15:15:19.114Z,1.13
2023-02-06T15:20:27.204Z,1.02
2023-02-06T15:25:46.827Z,1.40
2023-02-06T15:30:56.845Z,1.42
2023-02-06T15:36:03.256Z,1.10
2023-02-06T15:41:08.926Z,1.13
2023-02-06T15:46:15.630Z,1.58
2023-02-06T15:51:26.908Z,1.50
2023-02-06T15:56:33.167Z,1.13
2023-02-06T16:01:42.456Z,1.08
2023-02-06T16:06:47.293Z,1.13
2023-02-06T16:11:53.920Z,1.52
2023-02-06T16:17:01.278Z,1.33
2023-02-06T16:22:07.061Z,1.48
2023-02-06T16:27:18.954Z,1.70
2023-02-06T16:32:26.565Z,1.52
2023-02-06T16:37:31.999Z,1.70
2023-02-06T16:42:38.303Z,1.38
2023-02-06T16:47:43.520Z,1.77
2023-02-06T16:52:50.123Z,1.10
2023-02-06T16:57:56.424Z,1.80
2023-02-06T17:03:01.708Z,1.40
2023-02-06T17:08:14.935Z,1.77
2023-02-06T17:13:20.367Z,1.52
2023-02-06T17:18:25.560Z,1.35
2023-02-06T17:23:29.341Z,1.77
2023-02-06T17:28:33.099Z,1.40
2023-02-06T17:33:38.673Z,1.50
2023-02-06T17:38:42.379Z,1.70
2023-02-06T17:43:46.107Z,1.80
2023-02-06T17:48:51.595Z,1.80
2023-02-06T17:53:55.555Z,1.88
2023-02-06T17:58:59.435Z,2.75
2023-02-06T18:04:04.939Z,2.25
2023-02-06T18:09:08.667Z,2.05
2023-02-06T18:14:12.501Z,2.00
2023-02-06T18:19:23.938Z,2.72
2023-02-06T18:24:27.767Z,2.90
2023-02-06T18:29:43.733Z,4.43
2023-02-06T18:34:53.935Z,3.58
2023-02-06T18:39:58.461Z,3.28
2023-02-06T18:45:04.154Z,4.03
2023-02-06T18:50:10.545Z,3.95
2023-02-06T18:55:14.288Z,3.42
2023-02-06T19:00:19.568Z,3.80
2023-02-06T19:05:24.868Z,3.67
2023-02-06T19:10:29.313Z,4.05
2023-02-06T19:15:34.516Z,4.28
2023-02-06T19:20:42.447Z,3.72
2023-02-06T19:25:46.141Z,4.05
2023-02-06T19:30:50.040Z,4.57
2023-02-06T19:35:55.307Z,4.82
2023-02-06T19:41:05.639Z,4.28
2023-02-06T19:46:12.115Z,4.35
2023-02-06T19:51:19.653Z,3.70
2023-02-06T19:56:25.130Z,4.63
2023-02-06T20:01:30.360Z,4.47
2023-02-06T20:06:36.658Z,4.45
2023-02-06T20:11:40.529Z,4.07
2023-02-06T20:16:46.105Z,4.15
2023-02-06T20:21:53.956Z,4.75
2023-02-06T20:26:59.847Z,4.32
2023-02-06T20:32:06.246Z,5.85
2023-02-06T20:37:11.728Z,5.43
2023-02-06T20:42:15.579Z,6.53
2023-02-06T20:47:19.300Z,7.32
2023-02-06T20:52:24.383Z,8.10
2023-02-06T20:57:28.399Z,8.27
2023-02-06T21:02:32.226Z,7.90
2023-02-06T21:07:38.977Z,10.63
2023-02-06T21:12:42.881Z,9.40
2023-02-06T21:17:46.807Z,10.10
2023-02-06T21:22:52.977Z,9.05
2023-02-06T21:27:56.813Z,6.67
2023-02-06T21:33:01.549Z,7.60
2023-02-06T21:38:07.165Z,6.43
2023-02-06T21:43:11.131Z,5.57
2023-02-06T21:48:15.544Z,5.25
2023-02-06T21:53:20.770Z,5.38
2023-02-06T21:58:24.462Z,4.80
2023-02-06T22:03:28.283Z,4.78
2023-02-06T22:08:34.487Z,4.78
2023-02-06T22:13:38.449Z,4.55
2023-02-06T22:18:42.885Z,4.70
2023-02-06T22:23:49.609Z,5.18
2023-02-06T22:28:53.390Z,4.22
2023-02-06T22:33:58.957Z,3.83
2023-02-06T22:39:06.753Z,4.00
2023-02-06T22:44:12.483Z,3.83
2023-02-06T22:49:16.843Z,4.18
2023-02-06T22:54:21.893Z,3.47
2023-02-06T22:59:26.648Z,3.80
2023-02-06T23:04:34.649Z,3.80
2023-02-06T23:09:40.829Z,4.43
2023-02-06T23:14:44.657Z,4.93
2023-02-06T23:19:48.421Z,6.88
2023-02-06T23:24:53.564Z,6.63
2023-02-06T23:29:57.302Z,8.48
2023-02-06T23:35:01.046Z,8.93
2023-02-06T23:40:08.319Z,9.05
2023-02-06T23:45:12.079Z,9.27
2023-02-06T23:50:15.871Z,9.63
2023-02-06T23:55:21.418Z,6.93
